Jordan Airport


Codes: KJDN/JDN
Name: Jordan Airport
City: Jordan
Country: United States
Elevation: 2662 ft.
Wikipedia:

Photos at Jordan Airport


   Photos courtesy of SpottingLog. You can add your own sightings and photos by signing up for a free trial today.



No photos found.

Weather at Jordan Airport


Time (UTC)DescriptionTempratureWindCloud coverageVisibilityPressureHumidity
15-Apr-2024 18:00Overcast Clouds15°C7 mph, NE99%10000m1003hPa50%
15-Apr-2024 21:00Overcast Clouds18°C11 mph, N100%10000m1002hPa42%
16-Apr-2024 00:00Overcast Clouds19°C11 mph, N100%10000m1001hPa40%
16-Apr-2024 03:00Overcast Clouds15°C9 mph, N91%10000m1003hPa55%
16-Apr-2024 06:00Overcast Clouds13°C9 mph, NW96%10000m1003hPa61%
16-Apr-2024 09:00Overcast Clouds12°C9 mph, NW100%10000m1005hPa71%
16-Apr-2024 12:00Overcast Clouds11°C16 mph, NW100%10000m1007hPa74%
16-Apr-2024 15:00Overcast Clouds11°C20 mph, NW100%10000m1010hPa65%
16-Apr-2024 18:00Overcast Clouds14°C20 mph, NW100%10000m1010hPa51%
16-Apr-2024 21:00Overcast Clouds16°C22 mph, NW90%10000m1009hPa33%
17-Apr-2024 00:00Broken Clouds12°C25 mph, NW65%10000m1010hPa45%
17-Apr-2024 03:00Broken Clouds8°C16 mph, N68%10000m1015hPa61%
17-Apr-2024 06:00Broken Clouds6°C13 mph, N83%10000m1017hPa61%
17-Apr-2024 09:00Overcast Clouds5°C11 mph, NW100%10000m1017hPa62%
17-Apr-2024 12:00Overcast Clouds3°C16 mph, N100%10000m1019hPa66%
17-Apr-2024 15:00Overcast Clouds3°C20 mph, NW97%10000m1021hPa61%
17-Apr-2024 18:00Overcast Clouds4°C20 mph, NW98%10000m1022hPa55%
17-Apr-2024 21:00Light Rain7°C22 mph, NW100%10000m1021hPa45%
18-Apr-2024 00:00Overcast Clouds4°C22 mph, NW100%10000m1024hPa46%
18-Apr-2024 03:00Overcast Clouds2°C18 mph, NW100%10000m1027hPa54%
18-Apr-2024 06:00Broken Clouds0°C16 mph, NW68%10000m1029hPa64%
18-Apr-2024 09:00Clear Sky-1°C16 mph, NW9%10000m1030hPa75%
18-Apr-2024 12:00Clear Sky-2°C13 mph, NW10%10000m1031hPa78%
18-Apr-2024 15:00Few Clouds0°C20 mph, NW17%10000m1032hPa49%
18-Apr-2024 18:00Broken Clouds3°C20 mph, NW51%10000m1030hPa33%
18-Apr-2024 21:00Overcast Clouds5°C20 mph, NW100%10000m1028hPa28%
19-Apr-2024 00:00Overcast Clouds4°C20 mph, NW100%10000m1028hPa31%
19-Apr-2024 03:00Scattered Clouds1°C13 mph, N50%10000m1029hPa36%
19-Apr-2024 06:00Scattered Clouds-2°C9 mph, NW28%10000m1031hPa38%
19-Apr-2024 09:00Clear Sky-4°C7 mph, NW0%10000m1033hPa44%
19-Apr-2024 12:00Clear Sky-4°C7 mph, NW0%10000m1034hPa43%
19-Apr-2024 15:00Clear Sky-1°C13 mph, NW0%10000m1034hPa28%
19-Apr-2024 18:00Few Clouds2°C11 mph, NW13%10000m1032hPa24%
19-Apr-2024 21:00Few Clouds4°C11 mph, N11%10000m1030hPa22%
20-Apr-2024 00:00Few Clouds4°C9 mph, N12%10000m1030hPa22%
20-Apr-2024 03:00Broken Clouds1°C7 mph, NE81%10000m1031hPa31%
20-Apr-2024 06:00Broken Clouds-0°C4 mph, SE77%10000m1031hPa37%
20-Apr-2024 09:00Broken Clouds-2°C4 mph, SW65%10000m1031hPa38%
20-Apr-2024 12:00Scattered Clouds-2°C2 mph, SW38%10000m1031hPa38%
20-Apr-2024 15:00Clear Sky2°C2 mph, S5%10000m1030hPa26%